Time;durP1;ratioP1;P1;durP2;ratioP2;P2;SDS_P1;SDS_P2;PMS_P1;PMS_P2;Temp;Humidity;BMP_temperature;BMP_pressure;BME280_temperature;BME280_humidity;BME280_pressure;Samples;Min_cycle;Max_cycle;Signal;HPM_P1;HPM_P2
2022/06/23 00:01:24;;;;;;;;;;;;;;;30.84;28.66;98632.91;4408622;32;33611;-86
2022/06/23 00:03:55;;;;;;;;;;;;;;;30.72;28.82;98633.81;4408618;32;34112;-87
2022/06/23 00:06:41;;;;;;;;;;;;;;;30.74;29.14;98648.81;4422579;32;34286;-85
2022/06/23 00:09:28;;;;;;;;;;;;;;;30.56;29.49;98650.22;4408877;32;34384;-86
2022/06/23 00:11:56;;;;;;;;;;;;;;;30.37;29.62;98645.44;4422293;32;33925;-86
2022/06/23 00:14:24;;;;;;;;;;;;;;;30.51;29.54;98642.56;4422596;32;34148;-86
2022/06/23 00:16:51;;;;;;;;;;;;;;;30.28;29.87;98647.00;4422472;32;35081;-86
2022/06/23 00:19:18;;;;;;;;;;;;;;;30.33;29.86;98653.81;4422677;32;34994;-86
2022/06/23 00:21:50;;;;;;;;;;;;;;;30.17;30.00;98652.31;4408285;32;33795;-87
2022/06/23 00:24:19;;;;;;;;;;;;;;;29.97;30.19;98653.81;4422311;32;33271;-87
2022/06/23 00:26:47;;;;;;;;;;;;;;;27.40;33.88;98655.62;4408741;32;34931;-87
2022/06/23 00:29:15;;;;;;;;;;;;;;;29.03;31.31;98665.09;4408593;32;34378;-86
2022/06/23 00:31:47;;;;;;;;;;;;;;;29.05;31.26;98680.97;4408074;32;34247;-87
2022/06/23 00:34:21;;;;;;;;;;;;;;;27.12;34.57;98683.13;4408541;32;33214;-87
2022/06/23 00:36:52;;;;;;;;;;;;;;;27.20;34.06;98682.63;4408407;32;35131;-86
2022/06/23 00:39:20;;;;;;;;;;;;;;;27.14;34.02;98676.75;4408612;32;34542;-87
2022/06/23 00:41:47;;;;;;;;;;;;;;;27.54;33.30;98676.91;4422214;32;33990;-87
2022/06/23 00:44:16;;;;;;;;;;;;;;;27.86;32.77;98684.63;4408518;32;33180;-86
2022/06/23 00:46:45;;;;;;;;;;;;;;;27.61;33.32;98686.16;4422238;32;34910;-86
2022/06/23 00:49:26;;;;;;;;;;;;;;;27.99;33.08;98688.16;4405545;32;35044;-86
2022/06/23 00:51:54;;;;;;;;;;;;;;;27.64;32.25;98693.13;4405540;32;33786;-87
2022/06/23 00:54:23;;;;;;;;;;;;;;;28.27;31.46;98700.53;4393544;32;33783;-87
2022/06/23 00:56:53;;;;;;;;;;;;;;;28.53;30.57;98696.13;4393418;32;34910;-87
2022/06/23 00:59:29;;;;;;;;;;;;;;;28.34;30.43;98706.31;4406695;32;34043;-87
2022/06/23 01:02:03;;;;;;;;;;;;;;;28.03;30.70;98707.47;4406732;32;34647;-87
2022/06/23 01:04:34;;;;;;;;;;;;;;;27.81;30.38;98711.56;4407127;32;33228;-87
2022/06/23 01:07:20;;;;;;;;;;;;;;;28.08;28.72;98718.69;4393294;32;34099;-88
2022/06/23 01:10:00;;;;;;;;;;;;;;;27.85;29.52;98710.41;4407164;32;35321;-88
2022/06/23 01:12:37;;;;;;;;;;;;;;;28.26;29.26;98716.59;4406507;32;35011;-88
2022/06/23 01:15:10;;;;;;;;;;;;;;;28.57;28.63;98710.94;4405642;32;33486;-87
2022/06/23 01:17:39;;;;;;;;;;;;;;;28.44;30.73;98706.53;4393305;32;34052;-88
2022/06/23 01:20:18;;;;;;;;;;;;;;;28.83;30.06;98705.66;4405351;32;35415;-87
2022/06/23 01:22:48;;;;;;;;;;;;;;;28.96;31.00;98703.81;4405621;32;34216;-87
2022/06/23 01:25:16;;;;;;;;;;;;;;;29.31;31.57;98716.50;4406483;32;33554;-86
2022/06/23 01:27:54;;;;;;;;;;;;;;;29.33;32.48;98706.59;4406753;32;34147;-87
2022/06/23 01:30:22;;;;;;;;;;;;;;;29.53;32.40;98708.66;4406400;32;34929;-87
2022/06/23 01:32:55;;;;;;;;;;;;;;;29.80;32.37;98718.34;4404867;32;33805;-87
2022/06/23 01:35:25;;;;;;;;;;;;;;;29.19;33.08;98718.22;4406697;32;33594;-87
2022/06/23 01:37:57;;;;;;;;;;;;;;;29.33;33.10;98722.59;4405345;32;35090;-86
2022/06/23 01:40:29;;;;;;;;;;;;;;;29.40;32.87;98723.88;4405238;32;35311;-86
2022/06/23 01:43:16;;;;;;;;;;;;;;;29.09;32.89;98722.50;4392726;32;34860;-87
2022/06/23 01:46:03;;;;;;;;;;;;;;;28.86;33.93;98729.41;4406422;32;33867;-88
2022/06/23 01:48:52;;;;;;;;;;;;;;;28.40;35.61;98721.91;4406188;32;34177;-89
2022/06/23 01:51:30;;;;;;;;;;;;;;;28.29;36.11;98711.06;4391125;32;33931;-88
2022/06/23 01:54:16;;;;;;;;;;;;;;;28.17;37.04;98709.22;4389826;32;33891;-88
2022/06/23 01:56:51;;;;;;;;;;;;;;;28.33;37.20;98710.75;4391169;32;33111;-87
2022/06/23 01:59:53;;;;;;;;;;;;;;;27.74;37.95;98712.91;4391913;32;34194;-86
2022/06/23 02:02:37;;;;;;;;;;;;;;;28.06;37.50;98713.44;4405827;32;34427;-87
2022/06/23 02:05:23;;;;;;;;;;;;;;;27.91;37.62;98717.12;4406400;32;35036;-86
2022/06/23 02:07:51;;;;;;;;;;;;;;;27.77;37.73;98712.72;4392501;32;33122;-87
2022/06/23 02:10:21;;;;;;;;;;;;;;;27.54;37.76;98722.16;4404882;32;33824;-87
2022/06/23 02:12:48;;;;;;;;;;;;;;;27.64;37.48;98717.09;4406128;32;35183;-87
2022/06/23 02:15:17;;;;;;;;;;;;;;;27.61;37.35;98712.78;4406326;32;34083;-88
2022/06/23 02:17:49;;;;;;;;;;;;;;;27.73;36.93;98711.19;4406074;32;33231;-88
2022/06/23 02:20:29;;;;;;;;;;;;;;;27.46;37.32;98713.78;4404506;32;34810;-86
2022/06/23 02:22:59;;;;;;;;;;;;;;;27.31;37.39;98720.06;4404982;32;34405;-88
2022/06/23 02:25:28;;;;;;;;;;;;;;;27.05;37.68;98711.00;4404727;32;34239;-86
2022/06/23 02:27:55;;;;;;;;;;;;;;;27.14;37.62;98713.16;4404890;32;33158;-86
2022/06/23 02:30:33;;;;;;;;;;;;;;;27.07;37.48;98715.31;4405859;32;33949;-87
2022/06/23 02:33:02;;;;;;;;;;;;;;;27.16;37.14;98711.25;4404497;32;34205;-87
2022/06/23 02:35:32;;;;;;;;;;;;;;;26.79;37.56;98710.84;4404705;32;33865;-86
2022/06/23 02:38:00;;;;;;;;;;;;;;;26.61;37.92;98718.13;4404626;32;33571;-87
2022/06/23 02:40:36;;;;;;;;;;;;;;;26.59;37.91;98720.00;4405626;32;34496;-87
2022/06/23 02:43:04;;;;;;;;;;;;;;;26.05;38.72;98730.22;4405930;32;34448;-87
2022/06/23 02:45:52;;;;;;;;;;;;;;;26.18;38.79;98749.00;4391412;32;33069;-87
2022/06/23 02:48:38;;;;;;;;;;;;;;;25.93;38.95;98755.69;4405744;32;33470;-87
2022/06/23 02:51:24;;;;;;;;;;;;;;;26.44;37.75;98747.44;4405451;32;33844;-86
2022/06/23 02:53:56;;;;;;;;;;;;;;;26.76;37.04;98747.41;4405790;32;34486;-87
2022/06/23 02:56:43;;;;;;;;;;;;;;;26.71;36.91;98747.69;4404333;32;34188;-87
2022/06/23 02:59:10;;;;;;;;;;;;;;;26.82;36.61;98760.31;4405628;32;34292;-86
2022/06/23 03:01:40;;;;;;;;;;;;;;;26.59;36.86;98767.00;4405651;32;34844;-87
2022/06/23 03:04:10;;;;;;;;;;;;;;;26.58;36.89;98766.16;4404230;32;34916;-86
2022/06/23 03:06:41;;;;;;;;;;;;;;;26.77;36.66;98765.06;4405746;32;34458;-87
2022/06/23 03:09:13;;;;;;;;;;;;;;;26.46;36.99;98756.25;4405802;32;34109;-86
2022/06/23 03:11:52;;;;;;;;;;;;;;;26.80;36.38;98767.53;4404073;32;34151;-88
2022/06/23 03:14:42;;;;;;;;;;;;;;;26.60;36.78;98761.59;4404032;32;33784;-87
2022/06/23 03:17:30;;;;;;;;;;;;;;;26.22;37.19;98768.28;4404472;32;33812;-87
2022/06/23 03:20:13;;;;;;;;;;;;;;;26.39;36.75;98778.78;4400082;32;33406;-87
2022/06/23 03:22:43;;;;;;;;;;;;;;;26.50;36.54;98771.06;4407013;32;35095;-87
2022/06/23 03:25:21;;;;;;;;;;;;;;;26.58;36.29;98779.44;4405994;32;34334;-86
2022/06/23 03:28:09;;;;;;;;;;;;;;;26.49;36.19;98785.31;4405960;32;34946;-87
2022/06/23 03:30:45;;;;;;;;;;;;;;;26.79;36.03;98787.97;4405612;32;33163;-88
2022/06/23 03:33:32;;;;;;;;;;;;;;;26.83;36.09;98785.97;4407186;32;35206;-87
2022/06/23 03:36:04;;;;;;;;;;;;;;;27.13;35.58;98781.50;4407104;32;34434;-87
2022/06/23 03:41:38;;;;;;;;;;;;;;;27.12;35.98;98778.91;4406988;32;33486;-86
2022/06/23 03:44:09;;;;;;;;;;;;;;;27.24;35.60;98780.84;4406028;32;34312;-87
2022/06/23 03:46:38;;;;;;;;;;;;;;;26.57;36.81;98783.06;4407019;32;35350;-87
2022/06/23 03:49:25;;;;;;;;;;;;;;;27.06;36.18;98793.41;4405581;32;33855;-86
2022/06/23 03:51:54;;;;;;;;;;;;;;;26.48;37.04;98794.25;4406801;32;33924;-87
2022/06/23 03:54:26;;;;;;;;;;;;;;;26.88;36.82;98805.16;4407105;32;35375;-87
2022/06/23 03:56:55;;;;;;;;;;;;;;;26.96;36.37;98810.88;4405794;32;34348;-87
2022/06/23 03:59:23;;;;;;;;;;;;;;;27.52;35.62;98811.91;4407155;32;34007;-86
2022/06/23 04:01:51;;;;;;;;;;;;;;;27.77;35.71;98815.72;4407154;32;33222;-87
2022/06/23 04:04:39;;;;;;;;;;;;;;;27.75;35.26;98813.16;4407157;32;35064;-86
2022/06/23 04:07:25;;;;;;;;;;;;;;;26.98;36.43;98819.63;4388176;32;32911;-86
2022/06/23 04:09:53;;;;;;;;;;;;;;;27.64;35.24;98823.59;4407007;32;34624;-87
2022/06/23 04:12:20;;;;;;;;;;;;;;;28.06;34.08;98817.38;4392831;32;32348;-87
2022/06/23 04:14:49;;;;;;;;;;;;;;;28.34;33.60;98827.13;4405556;32;34842;-87
2022/06/23 04:17:19;;;;;;;;;;;;;;;28.58;33.57;98827.34;4405848;32;35437;-87
2022/06/23 04:19:48;;;;;;;;;;;;;;;28.95;32.88;98830.19;4407338;32;34305;-87
2022/06/23 04:22:23;;;;;;;;;;;;;;;29.21;33.01;98835.56;4405963;32;33100;-87
2022/06/23 04:24:52;;;;;;;;;;;;;;;29.34;33.63;98836.44;4407117;32;34177;-87
2022/06/23 04:27:24;;;;;;;;;;;;;;;29.31;32.47;98825.97;4405963;32;35001;-87
2022/06/23 04:29:52;;;;;;;;;;;;;;;29.41;32.01;98837.75;4405778;32;34231;-87
2022/06/23 04:32:21;;;;;;;;;;;;;;;29.49;32.65;98840.72;4405156;32;33806;-87
2022/06/23 04:34:54;;;;;;;;;;;;;;;29.86;32.07;98839.97;4405440;32;35285;-87
2022/06/23 04:37:41;;;;;;;;;;;;;;;30.17;31.59;98836.81;4406996;32;35232;-88
2022/06/23 04:40:17;;;;;;;;;;;;;;;29.77;27.32;98833.44;4383253;32;34180;-88
2022/06/23 04:42:47;;;;;;;;;;;;;;;29.54;26.38;98833.22;4405576;32;33721;-87
2022/06/23 04:45:31;;;;;;;;;;;;;;;29.45;28.88;98844.56;4405771;32;34271;-87
2022/06/23 04:47:59;;;;;;;;;;;;;;;29.18;29.32;98854.50;4405501;32;34784;-87
2022/06/23 04:50:52;;;;;;;;;;;;;;;29.69;30.45;98849.19;4405635;32;35103;-86
2022/06/23 04:53:25;;;;;;;;;;;;;;;29.98;29.78;98855.13;4394694;32;34174;-87
2022/06/23 04:56:13;;;;;;;;;;;;;;;30.07;27.57;98854.44;4393423;32;34054;-87
2022/06/23 04:58:42;;;;;;;;;;;;;;;30.22;28.40;98860.53;4390724;32;33766;-87
2022/06/23 05:01:13;;;;;;;;;;;;;;;30.38;28.25;98854.91;4380787;32;34267;-87
2022/06/23 05:03:44;;;;;;;;;;;;;;;30.75;28.75;98859.25;4393475;32;34163;-86
2022/06/23 05:06:30;;;;;;;;;;;;;;;29.24;29.89;98867.41;4392883;32;32592;-86
2022/06/23 05:08:59;;;;;;;;;;;;;;;29.70;27.28;98874.91;4406901;32;34245;-87
2022/06/23 05:11:39;;;;;;;;;;;;;;;30.03;28.13;98867.19;4406862;32;34141;-87
2022/06/23 05:14:13;;;;;;;;;;;;;;;30.29;28.47;98864.47;4406882;32;33413;-87
2022/06/23 05:16:40;;;;;;;;;;;;;;;30.40;28.36;98877.91;4392914;32;34993;-87
2022/06/23 05:19:10;;;;;;;;;;;;;;;29.62;25.62;98883.47;4392912;32;34063;-86
2022/06/23 05:21:41;;;;;;;;;;;;;;;29.87;27.34;98887.09;4393300;32;35019;-87
2022/06/23 05:24:26;;;;;;;;;;;;;;;30.22;26.86;98884.59;4393097;32;33016;-86
2022/06/23 05:27:01;;;;;;;;;;;;;;;30.74;27.88;98886.16;4393013;32;34077;-87
2022/06/23 05:29:28;;;;;;;;;;;;;;;30.91;26.75;98884.88;4393301;32;34346;-87
2022/06/23 05:31:58;;;;;;;;;;;;;;;30.20;25.33;98894.56;4407284;32;34152;-86
2022/06/23 05:34:30;;;;;;;;;;;;;;;30.02;26.39;98900.22;4393365;32;33391;-86
2022/06/23 05:36:57;;;;;;;;;;;;;;;30.90;25.79;98894.72;4393263;32;34901;-87
2022/06/23 05:39:27;;;;;;;;;;;;;;;30.43;23.72;98898.25;4393316;32;35350;-87
2022/06/23 05:41:55;;;;;;;;;;;;;;;31.01;25.16;98901.94;4392918;32;34480;-86
2022/06/23 05:44:24;;;;;;;;;;;;;;;31.17;23.06;98907.00;4392784;32;33481;-86
2022/06/23 05:46:52;;;;;;;;;;;;;;;30.90;25.01;98915.28;4393156;32;34230;-86
2022/06/23 05:49:26;;;;;;;;;;;;;;;30.93;24.54;98913.25;4393098;32;34774;-87
2022/06/23 05:51:54;;;;;;;;;;;;;;;31.00;24.33;98917.16;4393338;32;34954;-87
2022/06/23 05:54:24;;;;;;;;;;;;;;;31.35;22.51;98910.97;4392654;32;33294;-86
2022/06/23 05:56:58;;;;;;;;;;;;;;;30.39;23.43;98916.34;4405279;32;34154;-86
2022/06/23 05:59:25;;;;;;;;;;;;;;;31.54;23.95;98914.91;4406417;32;35042;-85
2022/06/23 06:01:54;;;;;;;;;;;;;;;30.77;23.46;98920.72;4406800;32;33883;-87
2022/06/23 06:04:22;;;;;;;;;;;;;;;31.48;22.97;98922.47;4404854;32;33463;-87
2022/06/23 06:06:50;;;;;;;;;;;;;;;31.10;22.40;98917.31;4392995;32;34133;-85
2022/06/23 06:09:36;;;;;;;;;;;;;;;31.24;22.53;98916.25;4406532;32;34812;-86
2022/06/23 06:12:04;;;;;;;;;;;;;;;31.47;21.82;98923.41;4395121;32;34106;-86
2022/06/23 06:14:33;;;;;;;;;;;;;;;30.70;21.68;98927.47;4392562;32;33858;-87
2022/06/23 06:17:00;;;;;;;;;;;;;;;30.24;22.72;98922.78;4392840;32;35031;-88
2022/06/23 06:19:28;;;;;;;;;;;;;;;29.75;23.85;98932.44;4392865;32;34832;-86
2022/06/23 06:21:56;;;;;;;;;;;;;;;28.25;24.10;98942.34;4392169;32;34903;-88
2022/06/23 06:24:28;;;;;;;;;;;;;;;29.28;24.02;98941.00;4392540;32;33015;-86
2022/06/23 06:26:55;;;;;;;;;;;;;;;30.45;21.95;98936.41;4393062;32;33801;-87
2022/06/23 06:29:24;;;;;;;;;;;;;;;30.52;22.74;98935.84;4392726;32;34453;-86
2022/06/23 06:31:52;;;;;;;;;;;;;;;29.05;23.80;98938.06;4392349;32;35460;-86
2022/06/23 06:34:23;;;;;;;;;;;;;;;30.14;23.28;98935.06;4393050;32;33402;-86
2022/06/23 06:36:51;;;;;;;;;;;;;;;31.51;22.93;98934.75;4392565;32;34218;-84
2022/06/23 06:39:23;;;;;;;;;;;;;;;31.93;21.78;98943.13;4379834;32;34656;-86
2022/06/23 06:41:51;;;;;;;;;;;;;;;31.32;22.15;98939.81;4406246;32;34030;-87
2022/06/23 06:44:18;;;;;;;;;;;;;;;32.19;20.70;98936.53;4390219;32;33445;-88
2022/06/23 06:46:45;;;;;;;;;;;;;;;31.62;20.80;98942.81;4406149;32;34307;-86
2022/06/23 06:49:14;;;;;;;;;;;;;;;32.12;21.44;98951.41;4392459;32;35189;-87
2022/06/23 06:51:42;;;;;;;;;;;;;;;31.16;20.73;98954.34;4419762;32;33866;-87
2022/06/23 06:54:14;;;;;;;;;;;;;;;32.21;21.45;98937.28;4407405;32;33106;-87
2022/06/23 06:56:43;;;;;;;;;;;;;;;30.93;21.47;98948.03;4418447;32;33707;-83
2022/06/23 06:59:10;;;;;;;;;;;;;;;31.55;20.55;98948.78;4406801;32;34290;-84
2022/06/23 07:01:38;;;;;;;;;;;;;;;31.46;22.49;98961.91;4420694;32;34823;-87
2022/06/23 07:04:08;;;;;;;;;;;;;;;30.90;22.38;98958.97;4407041;32;34381;-86
2022/06/23 07:06:37;;;;;;;;;;;;;;;30.29;22.65;98963.41;4403278;32;33959;-86
2022/06/23 07:09:13;;;;;;;;;;;;;;;28.55;23.58;98971.56;4392299;32;35323;-84
2022/06/23 07:11:53;;;;;;;;;;;;;;;29.03;24.27;98961.34;4394519;32;33033;-85
2022/06/23 07:14:23;;;;;;;;;;;;;;;30.70;22.50;98964.91;4407196;32;33325;-85
2022/06/23 07:16:58;;;;;;;;;;;;;;;31.66;21.01;98967.56;4421117;32;35132;-85
2022/06/23 07:19:46;;;;;;;;;;;;;;;31.64;21.49;98964.16;4397523;32;35276;-84
2022/06/23 07:22:16;;;;;;;;;;;;;;;29.86;22.78;98976.28;4417655;32;35306;-86
2022/06/23 07:24:43;;;;;;;;;;;;;;;30.79;22.87;98966.94;4414751;32;33012;-88
2022/06/23 07:27:14;;;;;;;;;;;;;;;29.19;23.81;98976.34;4420938;32;33712;-86
2022/06/23 07:30:13;;;;;;;;;;;;;;;31.07;21.64;98971.13;4420790;32;34574;-85
2022/06/23 07:32:41;;;;;;;;;;;;;;;30.54;22.14;98970.53;4392517;32;34501;-87
2022/06/23 07:35:08;;;;;;;;;;;;;;;31.42;22.50;98976.50;4407253;32;31544;-86
2022/06/23 07:37:41;;;;;;;;;;;;;;;31.15;21.24;98981.25;4406449;32;33868;-85
2022/06/23 07:40:09;;;;;;;;;;;;;;;32.33;21.09;98994.47;4391571;32;35119;-83
2022/06/23 07:42:36;;;;;;;;;;;;;;;30.75;20.74;98989.53;4403741;32;35037;-85
2022/06/23 07:45:20;;;;;;;;;;;;;;;30.85;20.61;98985.22;4405986;32;32081;-86
2022/06/23 07:47:48;;;;;;;;;;;;;;;31.89;20.55;98989.91;4420611;32;33725;-86
2022/06/23 07:50:15;;;;;;;;;;;;;;;29.80;22.74;98990.91;4420457;32;34330;-86
2022/06/23 07:52:43;;;;;;;;;;;;;;;30.34;22.09;98997.84;4420031;32;34273;-85
2022/06/23 07:55:21;;;;;;;;;;;;;;;31.55;21.87;98987.13;4408599;32;33014;-86
2022/06/23 07:58:08;;;;;;;;;;;;;;;31.32;22.21;98991.56;4388028;32;33523;-85
2022/06/23 08:00:37;;;;;;;;;;;;;;;30.55;22.41;98988.28;4421114;32;34493;-83
2022/06/23 08:03:08;;;;;;;;;;;;;;;30.98;21.78;98990.53;4419030;32;34904;-84
2022/06/23 08:05:43;;;;;;;;;;;;;;;30.86;21.92;98994.97;4418872;32;33217;-84
2022/06/23 08:08:13;;;;;;;;;;;;;;;31.33;21.49;98987.94;4414566;32;34888;-82
2022/06/23 08:10:40;;;;;;;;;;;;;;;31.44;21.96;98981.75;4422545;32;34983;-84
2022/06/23 08:13:09;;;;;;;;;;;;;;;31.84;20.62;98992.09;4408221;32;33376;-83
2022/06/23 08:18:26;;;;;;;;;;;;;;;30.37;22.20;98993.13;4398042;32;33662;-84
2022/06/23 08:20:58;;;;;;;;;;;;;;;31.06;22.30;98990.81;4422157;32;34313;-83
2022/06/23 08:23:26;;;;;;;;;;;;;;;31.21;19.90;98986.13;4422371;32;33797;-82
2022/06/23 08:25:53;;;;;;;;;;;;;;;32.02;20.86;98989.84;4395670;32;31730;-83
2022/06/23 08:28:22;;;;;;;;;;;;;;;31.17;21.13;98982.81;4407802;32;34993;-84
2022/06/23 08:30:55;;;;;;;;;;;;;;;32.20;21.10;98988.34;4421923;32;35245;-83
2022/06/23 08:33:22;;;;;;;;;;;;;;;31.31;21.78;98989.88;4421809;32;34036;-83
2022/06/23 08:35:50;;;;;;;;;;;;;;;31.01;22.00;98982.28;4407724;32;34274;-84
2022/06/23 08:38:20;;;;;;;;;;;;;;;30.74;22.71;98995.87;4407718;32;33736;-83
2022/06/23 08:40:56;;;;;;;;;;;;;;;30.14;23.02;98991.22;4392901;32;33566;-83
2022/06/23 08:43:30;;;;;;;;;;;;;;;30.87;23.18;98990.47;4421794;32;34505;-85
2022/06/23 08:45:57;;;;;;;;;;;;;;;30.10;21.97;98995.06;4407601;32;34265;-83
2022/06/23 08:48:31;;;;;;;;;;;;;;;31.17;21.14;98981.97;4421305;32;34893;-83
2022/06/23 08:51:06;;;;;;;;;;;;;;;31.25;21.19;98985.81;4404302;32;34318;-83
2022/06/23 08:53:43;;;;;;;;;;;;;;;31.38;21.04;98979.53;4392709;32;33631;-83
2022/06/23 08:56:16;;;;;;;;;;;;;;;31.48;21.03;98991.25;4380099;32;32983;-83
2022/06/23 08:58:49;;;;;;;;;;;;;;;29.84;21.64;98995.06;4379522;32;32578;-83
2022/06/23 09:01:18;;;;;;;;;;;;;;;30.88;20.88;98985.00;4392373;32;32992;-84
2022/06/23 09:03:58;;;;;;;;;;;;;;;31.35;19.77;98988.66;4392484;32;33855;-84
2022/06/23 09:06:37;;;;;;;;;;;;;;;30.81;20.29;98986.44;4379831;32;32083;-84
2022/06/23 09:09:05;;;;;;;;;;;;;;;31.95;18.97;98978.72;4406180;32;34558;-82
2022/06/23 09:11:54;;;;;;;;;;;;;;;31.42;19.09;98979.19;4406209;32;34303;-87
2022/06/23 09:14:21;;;;;;;;;;;;;;;31.48;19.29;98991.25;4403157;32;34129;-83
2022/06/23 09:16:54;;;;;;;;;;;;;;;31.22;19.56;98990.53;4399595;32;33993;-83
2022/06/23 09:19:21;;;;;;;;;;;;;;;31.27;20.58;98991.03;4402541;32;34737;-87
2022/06/23 09:21:51;;;;;;;;;;;;;;;31.75;19.86;98988.31;4406016;32;34099;-85
2022/06/23 09:24:29;;;;;;;;;;;;;;;32.20;20.65;98989.22;4406544;32;33854;-86
2022/06/23 09:27:02;;;;;;;;;;;;;;;31.63;20.36;98983.88;4392443;32;33354;-86
2022/06/23 09:29:37;;;;;;;;;;;;;;;31.73;20.42;98968.78;4391614;32;35049;-84
2022/06/23 09:32:11;;;;;;;;;;;;;;;32.10;19.87;98976.66;4406031;32;34511;-87
2022/06/23 09:34:44;;;;;;;;;;;;;;;32.88;19.35;98973.94;4392630;32;34172;-85
2022/06/23 09:37:15;;;;;;;;;;;;;;;33.25;18.39;98970.03;4405500;32;34180;-87
2022/06/23 09:40:00;;;;;;;;;;;;;;;33.52;19.41;98977.59;4406577;32;35232;-86
2022/06/23 09:42:34;;;;;;;;;;;;;;;31.50;19.84;98976.78;4406736;32;34396;-86
2022/06/23 09:45:01;;;;;;;;;;;;;;;30.66;20.94;98987.53;4392117;32;33835;-86
2022/06/23 09:47:32;;;;;;;;;;;;;;;31.75;20.92;98980.25;4406069;32;33478;-84
2022/06/23 09:50:07;;;;;;;;;;;;;;;32.71;19.94;98987.87;4392740;32;35063;-86
2022/06/23 09:52:41;;;;;;;;;;;;;;;32.61;19.03;98973.47;4420053;32;35177;-84
2022/06/23 09:55:08;;;;;;;;;;;;;;;33.01;18.83;98964.87;4421945;32;34410;-84
2022/06/23 09:57:54;;;;;;;;;;;;;;;32.98;19.10;98965.97;4420357;32;33200;-86
2022/06/23 10:00:44;;;;;;;;;;;;;;;33.22;19.19;98965.75;4406333;32;33794;-84
2022/06/23 10:03:12;;;;;;;;;;;;;;;33.85;18.20;98969.34;4401215;32;34277;-86
2022/06/23 10:05:53;;;;;;;;;;;;;;;33.25;18.15;98967.34;4407758;32;33780;-86
2022/06/23 10:08:27;;;;;;;;;;;;;;;32.43;19.24;98963.28;4408235;32;32765;-87
2022/06/23 10:10:54;;;;;;;;;;;;;;;31.67;19.43;98969.25;4407703;32;35032;-83
2022/06/23 10:13:40;;;;;;;;;;;;;;;31.97;18.95;98963.34;4421278;32;34522;-84
2022/06/23 10:16:17;;;;;;;;;;;;;;;31.77;19.74;98970.25;4421619;32;34206;-86
2022/06/23 10:18:54;;;;;;;;;;;;;;;32.35;19.42;98971.06;4407411;32;31488;-85
2022/06/23 10:21:33;;;;;;;;;;;;;;;32.89;18.41;98964.87;4392702;32;35259;-84
2022/06/23 10:24:16;;;;;;;;;;;;;;;32.69;19.84;98969.22;4392708;32;33851;-84
2022/06/23 10:26:47;;;;;;;;;;;;;;;33.72;17.91;98974.09;4380117;32;33570;-84
2022/06/23 10:29:21;;;;;;;;;;;;;;;34.58;16.66;98974.66;4408632;32;34260;-84
2022/06/23 10:31:53;;;;;;;;;;;;;;;34.12;16.59;98966.09;4419916;32;35013;-85
2022/06/23 10:34:33;;;;;;;;;;;;;;;34.54;17.97;98965.16;4407543;32;35195;-84
2022/06/23 10:37:15;;;;;;;;;;;;;;;33.95;16.41;98963.19;4407553;32;33382;-86
2022/06/23 10:39:45;;;;;;;;;;;;;;;31.98;18.13;98970.44;4407013;32;33034;-86
2022/06/23 10:42:32;;;;;;;;;;;;;;;31.36;19.07;98970.75;4421211;32;34839;-86
2022/06/23 10:45:21;;;;;;;;;;;;;;;32.58;17.71;98961.19;4407683;32;34532;-86
2022/06/23 10:47:48;;;;;;;;;;;;;;;33.15;18.41;98957.37;4421315;32;34007;-84
2022/06/23 10:50:18;;;;;;;;;;;;;;;34.07;17.85;98959.44;4421070;32;33366;-86
2022/06/23 10:53:15;;;;;;;;;;;;;;;34.38;16.23;98953.03;4409566;32;33795;-86
2022/06/23 10:55:48;;;;;;;;;;;;;;;33.99;16.84;98952.03;4421277;32;34867;-85
2022/06/23 10:58:34;;;;;;;;;;;;;;;33.89;16.81;98948.41;4407412;32;33753;-83
2022/06/23 11:01:17;;;;;;;;;;;;;;;33.78;18.68;98962.78;4419279;32;32629;-86
2022/06/23 11:03:57;;;;;;;;;;;;;;;33.70;16.37;98959.06;4420563;32;34132;-84
2022/06/23 11:06:28;;;;;;;;;;;;;;;33.78;16.22;98957.41;4394107;32;33266;-85
2022/06/23 11:08:55;;;;;;;;;;;;;;;33.14;17.24;98957.47;4406855;32;33441;-83
2022/06/23 11:11:28;;;;;;;;;;;;;;;33.84;16.65;98956.87;4406937;32;32556;-85
2022/06/23 11:14:02;;;;;;;;;;;;;;;33.88;15.88;98954.78;4407056;32;33755;-83
2022/06/23 11:16:31;;;;;;;;;;;;;;;33.36;17.90;98957.37;4407169;32;35132;-85
2022/06/23 11:18:59;;;;;;;;;;;;;;;33.58;17.17;98959.13;4406176;32;34246;-86
2022/06/23 11:21:45;;;;;;;;;;;;;;;32.35;15.53;98951.41;4420908;32;33273;-86
2022/06/23 11:24:19;;;;;;;;;;;;;;;32.85;16.19;98947.31;4393611;32;867633;-85
2022/06/23 11:26:58;;;;;;;;;;;;;;;31.86;17.40;98955.31;4420920;32;35478;-85
2022/06/23 11:29:37;;;;;;;;;;;;;;;32.49;18.21;98955.69;4420343;32;34939;-85
2022/06/23 11:32:17;;;;;;;;;;;;;;;33.15;16.45;98953.84;4407606;32;33176;-85
2022/06/23 11:35:04;;;;;;;;;;;;;;;33.66;15.61;98947.72;4420653;32;34215;-85
2022/06/23 11:37:50;;;;;;;;;;;;;;;33.65;16.26;98937.97;4406000;32;34388;-83
2022/06/23 11:40:36;;;;;;;;;;;;;;;32.79;16.48;98945.12;4420163;32;33906;-87
2022/06/23 11:43:23;;;;;;;;;;;;;;;33.62;16.38;98935.53;4421770;32;33399;-85
2022/06/23 11:46:12;;;;;;;;;;;;;;;34.08;17.87;98945.84;4422464;32;33768;-84
2022/06/23 11:48:42;;;;;;;;;;;;;;;33.57;15.83;98948.53;4422625;32;34106;-84
2022/06/23 11:51:42;;;;;;;;;;;;;;;32.79;17.38;98944.28;4422422;32;35017;-85
2022/06/23 11:54:28;;;;;;;;;;;;;;;33.65;15.65;98949.56;4383789;32;33236;-85
2022/06/23 11:57:14;;;;;;;;;;;;;;;32.99;16.60;98939.97;4422465;32;34326;-85
2022/06/23 11:59:50;;;;;;;;;;;;;;;34.22;17.44;98949.16;4422387;32;34391;-85
2022/06/23 12:02:40;;;;;;;;;;;;;;;34.55;16.11;98946.19;4422798;32;34278;-83
2022/06/23 12:05:40;;;;;;;;;;;;;;;33.23;15.22;98951.34;4417987;32;33671;-84
2022/06/23 12:08:15;;;;;;;;;;;;;;;33.55;16.67;98950.47;4381575;32;34132;-84
2022/06/23 12:10:42;;;;;;;;;;;;;;;33.09;18.58;98941.75;4405154;32;34532;-84
2022/06/23 12:13:09;;;;;;;;;;;;;;;33.82;16.78;98958.00;4407972;32;34283;-85
2022/06/23 12:15:44;;;;;;;;;;;;;;;33.26;15.93;98947.53;4407316;32;33400;-84
2022/06/23 12:18:20;;;;;;;;;;;;;;;33.99;16.35;98953.88;4408884;32;34149;-85
2022/06/23 12:20:52;;;;;;;;;;;;;;;34.11;15.90;98947.41;4422428;32;34099;-85
2022/06/23 12:23:37;;;;;;;;;;;;;;;34.23;15.06;98956.25;4396076;32;34286;-84
2022/06/23 12:26:13;;;;;;;;;;;;;;;34.09;16.25;98954.75;4408321;32;33366;-84
2022/06/23 12:28:49;;;;;;;;;;;;;;;34.33;17.22;98944.53;4421836;32;35483;-87
2022/06/23 12:31:26;;;;;;;;;;;;;;;34.03;15.47;98955.31;4406769;32;32329;-85
2022/06/23 12:34:17;;;;;;;;;;;;;;;33.89;16.82;98948.41;4415357;32;35080;-85
2022/06/23 12:37:00;;;;;;;;;;;;;;;33.97;17.19;98953.12;4400896;32;33812;-84
2022/06/23 12:39:37;;;;;;;;;;;;;;;32.39;17.39;98951.06;4420789;32;34185;-85
2022/06/23 12:42:09;;;;;;;;;;;;;;;33.89;16.81;98949.25;4406462;32;34144;-84
2022/06/23 12:44:41;;;;;;;;;;;;;;;31.88;17.56;98948.00;4408387;32;35074;-85
2022/06/23 12:47:17;;;;;;;;;;;;;;;32.54;18.74;98953.47;4408066;32;33191;-85
2022/06/23 12:50:00;;;;;;;;;;;;;;;32.52;17.24;98950.09;4407710;32;34999;-86
2022/06/23 12:52:35;;;;;;;;;;;;;;;32.07;18.33;98945.56;4422268;32;34031;-88
2022/06/23 12:55:22;;;;;;;;;;;;;;;32.52;16.75;98934.84;4407764;32;34120;-87
2022/06/23 12:57:59;;;;;;;;;;;;;;;33.28;16.33;98935.69;4421959;32;33288;-86
2022/06/23 13:00:40;;;;;;;;;;;;;;;33.12;17.53;98937.97;4422285;32;34886;-86
2022/06/23 13:03:10;;;;;;;;;;;;;;;33.77;15.86;98931.50;4408340;32;34481;-88
2022/06/23 13:05:39;;;;;;;;;;;;;;;33.95;15.70;98931.75;4422257;32;34070;-86
2022/06/23 13:08:10;;;;;;;;;;;;;;;33.56;15.86;98938.72;4408424;32;34057;-86
2022/06/23 13:10:56;;;;;;;;;;;;;;;33.16;17.40;98934.91;4421673;32;34336;-87
2022/06/23 13:13:37;;;;;;;;;;;;;;;32.88;18.15;98936.34;4407942;32;35424;-88
2022/06/23 13:16:11;;;;;;;;;;;;;;;32.94;19.08;98933.16;4421848;32;34153;-86
2022/06/23 13:18:43;;;;;;;;;;;;;;;33.16;18.14;98936.72;4408053;32;32615;-85
2022/06/23 13:21:25;;;;;;;;;;;;;;;32.86;17.73;98934.75;4408024;32;33936;-87
2022/06/23 13:24:03;;;;;;;;;;;;;;;33.21;17.51;98937.19;4395466;32;34198;-87
2022/06/23 13:26:35;;;;;;;;;;;;;;;32.96;18.17;98929.47;4408269;32;33747;-86
2022/06/23 13:29:06;;;;;;;;;;;;;;;33.02;18.13;98931.66;4408482;32;33560;-88
2022/06/23 13:31:38;;;;;;;;;;;;;;;34.11;17.68;98928.59;4422093;32;34135;-87